createdAt,value
2022-07-25T00:01:12.989Z,6.80
2022-07-25T00:03:40.790Z,6.37
2022-07-25T00:06:13.466Z,6.20
2022-07-25T00:08:44.222Z,5.50
2022-07-25T00:11:10.907Z,6.00
2022-07-25T00:13:37.567Z,6.07
2022-07-25T00:16:04.582Z,5.70
2022-07-25T00:18:31.283Z,6.37
2022-07-25T00:20:57.935Z,7.20
2022-07-25T00:23:24.631Z,8.00
2022-07-25T00:25:51.402Z,8.07
2022-07-25T00:28:18.051Z,8.47
2022-07-25T00:30:44.770Z,8.00
2022-07-25T00:33:11.433Z,6.67
2022-07-25T00:35:38.095Z,5.97
2022-07-25T00:38:04.728Z,5.83
2022-07-25T00:40:31.418Z,5.47
2022-07-25T00:42:58.094Z,5.37
2022-07-25T00:45:24.772Z,6.20
2022-07-25T00:47:51.442Z,5.77
2022-07-25T00:50:18.162Z,5.43
2022-07-25T00:52:45.328Z,5.30
2022-07-25T00:55:12.760Z,5.20
2022-07-25T00:57:39.395Z,4.80
2022-07-25T01:00:07.511Z,5.30
2022-07-25T01:02:34.334Z,4.73
2022-07-25T01:05:01.084Z,5.50
2022-07-25T01:07:27.731Z,5.80
2022-07-25T01:09:54.430Z,5.60
2022-07-25T01:12:21.152Z,5.60
2022-07-25T01:14:47.804Z,5.50
2022-07-25T01:17:14.529Z,5.63
2022-07-25T01:19:41.157Z,5.23
2022-07-25T01:22:08.224Z,5.27
2022-07-25T01:24:35.515Z,5.30
2022-07-25T01:27:02.851Z,5.47
2022-07-25T01:29:29.530Z,5.20
2022-07-25T01:31:56.243Z,5.60
2022-07-25T01:34:22.938Z,5.53
2022-07-25T01:36:49.651Z,6.20
2022-07-25T01:39:16.332Z,5.93
2022-07-25T01:41:42.992Z,5.77
2022-07-25T01:44:09.954Z,5.60
2022-07-25T01:46:37.018Z,5.23
2022-07-25T01:49:03.797Z,4.97
2022-07-25T01:51:30.591Z,5.17
2022-07-25T01:53:57.234Z,4.80
2022-07-25T01:56:24.216Z,5.43
2022-07-25T01:58:50.913Z,5.03
2022-07-25T02:01:17.755Z,5.33
2022-07-25T02:03:48.287Z,4.97
2022-07-25T02:06:15.000Z,5.50
2022-07-25T02:08:41.683Z,5.30
2022-07-25T02:11:08.344Z,5.10
2022-07-25T02:13:35.014Z,5.00
2022-07-25T02:16:01.693Z,6.57
2022-07-25T02:18:28.352Z,6.37
2022-07-25T02:20:55.048Z,6.20
2022-07-25T02:23:21.708Z,7.23
2022-07-25T02:25:48.421Z,6.20
2022-07-25T02:28:15.082Z,6.57
2022-07-25T02:30:41.831Z,6.00
2022-07-25T02:33:08.498Z,5.90
2022-07-25T02:35:35.416Z,5.77
2022-07-25T02:38:02.160Z,5.40
2022-07-25T02:40:28.905Z,5.60
2022-07-25T02:42:55.590Z,4.87
2022-07-25T02:45:22.276Z,5.70
2022-07-25T02:47:48.942Z,5.30
2022-07-25T02:50:15.597Z,5.10
2022-07-25T02:52:43.091Z,4.80
2022-07-25T02:55:10.401Z,5.00
2022-07-25T02:57:37.061Z,4.90
2022-07-25T03:00:05.285Z,4.80
2022-07-25T03:02:31.972Z,4.57
2022-07-25T03:04:58.619Z,4.80
2022-07-25T03:07:25.275Z,6.30
2022-07-25T03:09:51.956Z,5.60
2022-07-25T03:12:18.873Z,5.07
2022-07-25T03:14:45.512Z,5.70
2022-07-25T03:17:12.257Z,5.33
2022-07-25T03:19:38.994Z,6.80
2022-07-25T03:22:05.706Z,7.53
2022-07-25T03:24:32.372Z,6.97
2022-07-25T03:26:59.074Z,6.03
2022-07-25T03:29:25.704Z,5.70
2022-07-25T03:31:52.425Z,5.50
2022-07-25T03:34:19.171Z,5.07
2022-07-25T03:36:45.833Z,5.27
2022-07-25T03:39:12.580Z,5.23
2022-07-25T03:41:39.220Z,5.10
2022-07-25T03:44:06.124Z,4.90
2022-07-25T03:46:33.056Z,4.97
2022-07-25T03:48:59.793Z,6.20
2022-07-25T03:51:26.451Z,7.00
2022-07-25T03:54:02.198Z,6.70
2022-07-25T03:56:35.858Z,6.30
2022-07-25T03:59:10.222Z,6.17
2022-07-25T04:01:37.019Z,5.70
2022-07-25T04:04:04.222Z,7.10
2022-07-25T04:06:31.153Z,6.43
2022-07-25T04:08:58.183Z,6.00
2022-07-25T04:11:25.028Z,5.83
2022-07-25T04:13:51.820Z,5.47
2022-07-25T04:16:22.528Z,5.17
2022-07-25T04:18:50.576Z,5.10
2022-07-25T04:21:18.348Z,5.13
2022-07-25T04:23:45.047Z,6.27
2022-07-25T04:26:11.737Z,6.13
2022-07-25T04:28:38.359Z,5.50
2022-07-25T04:31:05.053Z,6.50
2022-07-25T04:33:31.726Z,6.83
2022-07-25T04:35:58.370Z,5.90
2022-07-25T04:38:25.014Z,5.67
2022-07-25T04:40:51.670Z,5.07
2022-07-25T04:43:19.668Z,5.20
2022-07-25T04:45:46.385Z,5.73
2022-07-25T04:48:13.069Z,6.03
2022-07-25T04:50:39.742Z,5.37
2022-07-25T04:53:06.487Z,5.60
2022-07-25T04:55:33.122Z,5.30
2022-07-25T04:58:00.547Z,6.10
2022-07-25T05:00:27.339Z,5.70
2022-07-25T05:02:54.088Z,5.17
2022-07-25T05:05:22.297Z,5.20
2022-07-25T05:07:49.996Z,4.90
2022-07-25T05:10:16.884Z,5.20
2022-07-25T05:12:43.548Z,5.17
2022-07-25T05:15:10.578Z,5.40
2022-07-25T05:17:37.229Z,5.90
2022-07-25T05:20:04.339Z,6.07
2022-07-25T05:22:31.385Z,5.70
2022-07-25T05:24:58.725Z,6.10
2022-07-25T05:27:25.444Z,5.80
2022-07-25T05:29:52.141Z,6.80
2022-07-25T05:32:18.814Z,6.10
2022-07-25T05:34:45.712Z,6.20
2022-07-25T05:37:12.396Z,5.20
2022-07-25T05:39:40.295Z,7.30
2022-07-25T05:42:07.475Z,5.80
2022-07-25T05:44:34.147Z,6.40
2022-07-25T05:47:00.917Z,6.13
2022-07-25T05:49:28.216Z,6.80
2022-07-25T05:51:54.909Z,7.07
2022-07-25T05:54:21.578Z,5.93
2022-07-25T05:56:48.211Z,5.80
2022-07-25T05:59:14.847Z,5.60
2022-07-25T06:01:41.647Z,6.40
2022-07-25T06:04:08.585Z,6.07
2022-07-25T06:06:35.647Z,6.00
2022-07-25T06:09:02.289Z,6.60
2022-07-25T06:11:34.565Z,6.33
2022-07-25T06:14:01.246Z,5.67
2022-07-25T06:16:28.634Z,5.30
2022-07-25T06:18:55.344Z,6.00
2022-07-25T06:21:22.007Z,5.63
2022-07-25T06:23:48.684Z,6.00
2022-07-25T06:26:15.319Z,6.57
2022-07-25T06:28:41.989Z,6.40
2022-07-25T06:31:08.717Z,6.30
2022-07-25T06:33:35.490Z,6.28
2022-07-25T06:36:02.131Z,5.70
2022-07-25T06:38:28.788Z,6.22
2022-07-25T06:40:55.455Z,6.30
2022-07-25T06:43:22.247Z,5.88
2022-07-25T06:45:49.825Z,6.10
2022-07-25T06:48:16.844Z,6.57
2022-07-25T06:50:43.889Z,5.70
2022-07-25T06:53:10.572Z,5.63
2022-07-25T06:55:37.237Z,5.68
2022-07-25T06:58:03.987Z,6.05
2022-07-25T07:00:30.648Z,6.45
2022-07-25T07:02:59.636Z,6.18
2022-07-25T07:05:27.870Z,6.70
2022-07-25T07:07:54.597Z,4.97
2022-07-25T07:10:21.942Z,5.78
2022-07-25T07:12:49.080Z,5.68
2022-07-25T07:15:15.923Z,4.97
2022-07-25T07:17:43.015Z,4.90
2022-07-25T07:20:09.968Z,5.63
2022-07-25T07:22:49.299Z,5.18
2022-07-25T07:25:17.501Z,5.22
2022-07-25T07:27:46.441Z,5.30
2022-07-25T07:30:14.853Z,5.30
2022-07-25T07:32:42.379Z,5.40
2022-07-25T07:35:09.784Z,5.45
2022-07-25T07:37:41.462Z,5.70
2022-07-25T07:40:17.908Z,5.10
2022-07-25T07:42:46.021Z,5.43
2022-07-25T07:45:14.077Z,5.65
2022-07-25T07:47:40.753Z,5.45
2022-07-25T07:50:08.144Z,5.13
2022-07-25T07:52:34.868Z,5.15
2022-07-25T07:55:19.967Z,4.80
2022-07-25T07:57:49.691Z,5.15
2022-07-25T08:00:16.917Z,4.80
2022-07-25T08:02:45.026Z,4.82
2022-07-25T08:05:11.763Z,5.18
2022-07-25T08:07:38.431Z,4.65
2022-07-25T08:10:05.653Z,4.90
2022-07-25T08:12:32.295Z,4.55
2022-07-25T08:14:58.940Z,4.63
2022-07-25T08:17:28.682Z,4.72
2022-07-25T08:19:59.290Z,4.30
2022-07-25T08:22:39.936Z,4.40
2022-07-25T08:25:10.815Z,4.45
2022-07-25T08:27:37.458Z,4.50
2022-07-25T08:30:05.501Z,4.70
2022-07-25T08:32:32.147Z,4.68
2022-07-25T08:34:59.209Z,4.03
2022-07-25T08:37:25.978Z,4.28
2022-07-25T08:39:52.817Z,4.50
2022-07-25T08:42:20.447Z,4.35
2022-07-25T08:44:55.059Z,4.38
2022-07-25T08:47:21.746Z,4.50
2022-07-25T08:49:48.412Z,4.20
2022-07-25T08:52:15.246Z,5.28
2022-07-25T08:54:42.318Z,4.00
2022-07-25T08:57:08.964Z,4.45
2022-07-25T08:59:38.451Z,4.35
2022-07-25T09:02:10.775Z,4.20
2022-07-25T09:04:38.144Z,3.80
2022-07-25T09:07:08.101Z,3.80
2022-07-25T09:09:36.320Z,3.40
2022-07-25T09:12:03.058Z,3.67
2022-07-25T09:14:29.942Z,4.18
2022-07-25T09:16:56.869Z,3.67
2022-07-25T09:19:24.972Z,3.60
2022-07-25T09:22:17.897Z,4.03
2022-07-25T09:24:45.160Z,4.00
2022-07-25T09:27:12.851Z,3.50
2022-07-25T09:29:40.058Z,3.80
2022-07-25T09:32:20.459Z,3.60
2022-07-25T09:34:48.247Z,3.55
2022-07-25T09:37:16.646Z,3.50
2022-07-25T09:39:47.144Z,3.70
2022-07-25T09:42:25.364Z,4.15
2022-07-25T09:45:03.642Z,3.60
2022-07-25T09:47:31.539Z,3.58
2022-07-25T09:49:58.251Z,3.20
2022-07-25T09:52:24.953Z,3.33
2022-07-25T09:54:51.679Z,3.42
2022-07-25T09:57:18.481Z,3.75
2022-07-25T09:59:45.372Z,3.25
2022-07-25T10:02:21.767Z,3.58
2022-07-25T10:05:14.565Z,3.70
2022-07-25T10:07:47.136Z,3.40
2022-07-25T10:10:30.636Z,3.30
2022-07-25T10:13:09.916Z,3.20
2022-07-25T10:15:51.449Z,3.17
2022-07-25T10:18:19.821Z,3.00
2022-07-25T10:20:47.228Z,3.13
2022-07-25T10:23:24.212Z,2.90
2022-07-25T10:26:10.729Z,3.20
2022-07-25T10:28:39.374Z,3.28
2022-07-25T10:31:21.930Z,3.00
2022-07-25T10:33:53.281Z,2.90
2022-07-25T10:36:20.262Z,3.20
2022-07-25T10:38:47.011Z,3.25
2022-07-25T10:41:15.403Z,3.08
2022-07-25T10:43:48.391Z,3.10
2022-07-25T10:46:22.987Z,3.00
2022-07-25T10:49:03.660Z,3.10
2022-07-25T10:51:35.993Z,2.80
2022-07-25T10:54:16.267Z,2.92
2022-07-25T10:56:56.727Z,3.15
2022-07-25T10:59:31.126Z,2.83
2022-07-25T11:01:58.057Z,3.13
2022-07-25T11:04:24.785Z,3.10
2022-07-25T11:06:51.442Z,2.70
2022-07-25T11:09:27.190Z,3.20
2022-07-25T11:11:58.574Z,3.28
2022-07-25T11:14:33.277Z,3.30
2022-07-25T11:17:13.105Z,3.30
2022-07-25T11:19:40.012Z,3.22
2022-07-25T11:22:06.730Z,3.03
2022-07-25T11:24:37.928Z,3.20
2022-07-25T11:27:08.481Z,3.20
2022-07-25T11:29:38.738Z,3.03
2022-07-25T11:32:07.335Z,3.08
2022-07-25T11:34:38.515Z,3.00
2022-07-25T11:37:08.697Z,3.15
2022-07-25T11:39:36.036Z,3.10
2022-07-25T11:42:16.483Z,3.30
2022-07-25T11:44:47.820Z,3.10
2022-07-25T11:47:31.424Z,3.30
2022-07-25T11:49:59.973Z,3.25
2022-07-25T11:52:34.416Z,3.10
2022-07-25T11:55:05.992Z,3.30
2022-07-25T11:57:34.659Z,3.20
2022-07-25T12:00:02.756Z,3.70
2022-07-25T12:02:33.338Z,3.03
2022-07-25T12:05:08.291Z,2.95
2022-07-25T12:07:45.699Z,3.03
2022-07-25T12:10:17.328Z,3.08
2022-07-25T12:12:54.842Z,3.10
2022-07-25T12:15:22.515Z,3.05
2022-07-25T12:17:50.558Z,2.90
2022-07-25T12:20:19.053Z,3.10
2022-07-25T12:22:45.861Z,3.25
2022-07-25T12:25:15.666Z,3.03
2022-07-25T12:27:42.398Z,3.35
2022-07-25T12:30:09.817Z,3.08
2022-07-25T12:32:39.914Z,3.30
2022-07-25T12:35:07.638Z,3.20
2022-07-25T12:37:34.369Z,3.00
2022-07-25T12:40:01.111Z,3.00
2022-07-25T12:42:30.716Z,3.47
2022-07-25T12:44:57.502Z,3.40
2022-07-25T12:47:24.613Z,3.30
2022-07-25T12:49:51.344Z,3.65
2022-07-25T12:52:18.056Z,3.40
2022-07-25T12:54:44.884Z,3.90
2022-07-25T12:57:11.972Z,3.85
2022-07-25T12:59:38.802Z,3.30
2022-07-25T13:02:05.698Z,3.72
2022-07-25T13:04:32.398Z,3.90
2022-07-25T13:06:59.091Z,4.07
2022-07-25T13:09:25.917Z,3.90
2022-07-25T13:11:52.814Z,3.97
2022-07-25T13:14:19.811Z,4.55
2022-07-25T13:16:46.806Z,4.45
2022-07-25T13:19:13.840Z,4.32
2022-07-25T13:21:40.561Z,4.32
2022-07-25T13:24:07.517Z,4.30
2022-07-25T13:26:34.420Z,4.82
2022-07-25T13:29:01.488Z,4.78
2022-07-25T13:31:28.246Z,4.88
2022-07-25T13:33:55.001Z,4.72
2022-07-25T13:36:21.655Z,4.80
2022-07-25T13:38:48.402Z,4.63
2022-07-25T13:41:15.055Z,5.25
2022-07-25T13:43:43.187Z,4.70
2022-07-25T13:46:09.938Z,4.50
2022-07-25T13:48:37.046Z,4.35
2022-07-25T13:51:04.220Z,5.05
2022-07-25T13:53:30.972Z,4.65
2022-07-25T13:55:58.409Z,5.35
2022-07-25T13:58:25.538Z,5.10
2022-07-25T14:00:52.583Z,4.82
2022-07-25T14:03:19.254Z,4.57
2022-07-25T14:05:46.101Z,5.13
2022-07-25T14:08:12.816Z,4.50
2022-07-25T14:10:39.523Z,4.30
2022-07-25T14:13:06.202Z,4.90
2022-07-25T14:15:32.898Z,5.07
2022-07-25T14:17:59.611Z,5.10
2022-07-25T14:20:26.318Z,4.57
2022-07-25T14:22:52.986Z,4.65
2022-07-25T14:25:19.648Z,4.60
2022-07-25T14:27:49.121Z,4.18
2022-07-25T14:30:15.770Z,4.60
2022-07-25T14:32:42.433Z,4.75
2022-07-25T14:35:10.909Z,4.78
2022-07-25T14:37:37.830Z,4.22
2022-07-25T14:40:05.679Z,4.25
2022-07-25T14:42:33.072Z,4.15
2022-07-25T14:45:00.018Z,3.80
2022-07-25T14:47:27.251Z,4.20
2022-07-25T14:49:54.265Z,4.10
2022-07-25T14:52:20.913Z,4.25
2022-07-25T14:54:47.614Z,3.70
2022-07-25T14:57:14.339Z,3.70
2022-07-25T14:59:41.026Z,3.42
2022-07-25T15:02:07.714Z,3.90
2022-07-25T15:04:34.445Z,3.70
2022-07-25T15:07:01.152Z,3.47
2022-07-25T15:09:28.223Z,3.33
2022-07-25T15:11:54.905Z,3.40
2022-07-25T15:14:21.598Z,3.33
2022-07-25T15:16:48.324Z,3.03
2022-07-25T15:19:16.867Z,2.80
2022-07-25T15:21:44.316Z,3.17
2022-07-25T15:24:10.957Z,3.00
2022-07-25T15:26:37.719Z,2.85
2022-07-25T15:29:08.065Z,2.80
2022-07-25T15:31:36.049Z,2.97
2022-07-25T15:34:02.994Z,2.95
2022-07-25T15:36:29.986Z,3.03
2022-07-25T15:38:56.803Z,2.90
2022-07-25T15:41:23.478Z,3.28
2022-07-25T15:43:50.232Z,3.10
2022-07-25T15:46:17.078Z,3.50
2022-07-25T15:48:44.548Z,3.60
2022-07-25T15:51:11.283Z,3.28
2022-07-25T15:53:37.950Z,3.38
2022-07-25T15:56:04.879Z,3.28
2022-07-25T15:58:31.609Z,3.75
2022-07-25T16:00:58.341Z,3.40
2022-07-25T16:03:25.147Z,3.35
2022-07-25T16:05:53.778Z,3.58
2022-07-25T16:08:20.498Z,3.58
2022-07-25T16:10:47.149Z,3.75
2022-07-25T16:13:13.810Z,3.92
2022-07-25T16:15:40.552Z,3.60
2022-07-25T16:18:07.270Z,4.10
2022-07-25T16:20:34.246Z,4.10
2022-07-25T16:23:00.965Z,4.00
2022-07-25T16:25:28.001Z,3.88
2022-07-25T16:27:54.717Z,4.18
2022-07-25T16:30:21.485Z,4.22
2022-07-25T16:32:48.190Z,3.72
2022-07-25T16:35:14.893Z,4.63
2022-07-25T16:37:42.124Z,4.13
2022-07-25T16:40:09.249Z,4.15
2022-07-25T16:42:36.024Z,4.70
2022-07-25T16:45:02.671Z,4.70
2022-07-25T16:47:29.348Z,4.15
2022-07-25T16:49:56.008Z,4.15
2022-07-25T16:52:22.887Z,3.80
2022-07-25T16:54:49.816Z,4.32
2022-07-25T16:57:16.476Z,4.15
2022-07-25T16:59:43.135Z,4.28
2022-07-25T17:02:09.876Z,4.20
2022-07-25T17:04:37.545Z,3.70
2022-07-25T17:07:04.337Z,4.25
2022-07-25T17:09:31.036Z,4.32
2022-07-25T17:11:58.001Z,3.80
2022-07-25T17:14:30.058Z,4.00
2022-07-25T17:16:57.055Z,4.30
2022-07-25T17:19:23.703Z,4.30
2022-07-25T17:21:50.363Z,4.18
2022-07-25T17:24:17.021Z,4.32
2022-07-25T17:26:43.805Z,4.10
2022-07-25T17:29:10.762Z,4.13
2022-07-25T17:31:37.594Z,4.15
2022-07-25T17:34:04.326Z,3.78
2022-07-25T17:36:30.995Z,3.83
2022-07-25T17:38:57.680Z,3.83
2022-07-25T17:41:24.369Z,3.95
2022-07-25T17:43:51.045Z,4.50
2022-07-25T17:46:18.287Z,4.10
2022-07-25T17:48:45.473Z,4.00
2022-07-25T17:51:12.137Z,4.15
2022-07-25T17:53:38.923Z,4.20
2022-07-25T17:56:05.747Z,4.10
2022-07-25T17:58:32.473Z,4.35
2022-07-25T18:01:01.302Z,4.10
2022-07-25T18:03:28.720Z,4.07
2022-07-25T18:05:55.591Z,4.03
2022-07-25T18:08:22.286Z,4.32
2022-07-25T18:10:52.090Z,3.63
2022-07-25T18:13:18.814Z,3.95
2022-07-25T18:15:45.879Z,3.70
2022-07-25T18:18:16.960Z,4.40
2022-07-25T18:20:47.218Z,4.40
2022-07-25T18:23:13.867Z,3.88
2022-07-25T18:25:40.727Z,4.72
2022-07-25T18:28:07.564Z,4.30
2022-07-25T18:30:34.220Z,4.38
2022-07-25T18:33:00.862Z,4.47
2022-07-25T18:35:27.506Z,4.20
2022-07-25T18:37:54.217Z,4.35
2022-07-25T18:40:20.927Z,4.38
2022-07-25T18:42:47.716Z,4.10
2022-07-25T18:45:14.588Z,4.50
2022-07-25T18:47:41.354Z,4.00
2022-07-25T18:50:08.443Z,3.80
2022-07-25T18:52:36.115Z,4.20
2022-07-25T18:55:03.656Z,5.32
2022-07-25T18:57:30.496Z,4.70
2022-07-25T19:00:00.914Z,4.57
2022-07-25T19:02:29.625Z,4.35
2022-07-25T19:04:56.506Z,4.53
2022-07-25T19:07:23.735Z,4.50
2022-07-25T19:09:50.521Z,3.70
2022-07-25T19:12:17.207Z,3.90
2022-07-25T19:14:44.153Z,4.28
2022-07-25T19:17:10.805Z,4.75
2022-07-25T19:19:37.444Z,6.95
2022-07-25T19:22:04.143Z,6.50
2022-07-25T19:24:31.366Z,6.30
2022-07-25T19:26:58.860Z,7.00
2022-07-25T19:29:26.621Z,6.88
2022-07-25T19:31:53.382Z,6.35
2022-07-25T19:34:20.091Z,5.97
2022-07-25T19:36:46.918Z,6.40
2022-07-25T19:39:13.671Z,5.95
2022-07-25T19:41:46.193Z,5.95
2022-07-25T19:44:13.462Z,5.50
2022-07-25T19:46:40.216Z,5.30
2022-07-25T19:49:07.066Z,6.90
2022-07-25T19:51:33.794Z,7.43
2022-07-25T19:54:03.217Z,6.70
2022-07-25T19:56:34.216Z,5.55
2022-07-25T19:59:01.569Z,5.90
2022-07-25T20:01:28.563Z,6.53
2022-07-25T20:03:55.302Z,6.05
2022-07-25T20:06:22.048Z,6.80
2022-07-25T20:08:48.746Z,6.63
2022-07-25T20:11:15.671Z,7.30
2022-07-25T20:13:42.358Z,7.15
2022-07-25T20:16:09.021Z,6.45
2022-07-25T20:18:35.686Z,6.43
2022-07-25T20:21:02.369Z,6.55
2022-07-25T20:23:30.107Z,6.03
2022-07-25T20:25:56.803Z,6.40
2022-07-25T20:28:23.573Z,5.80
2022-07-25T20:30:50.687Z,5.57
2022-07-25T20:33:17.488Z,6.10
2022-07-25T20:35:44.192Z,5.83
2022-07-25T20:38:10.909Z,6.30
2022-07-25T20:40:43.889Z,5.63
2022-07-25T20:43:15.046Z,5.07
2022-07-25T20:45:41.745Z,5.13
2022-07-25T20:48:08.493Z,5.00
2022-07-25T20:50:37.077Z,4.63
2022-07-25T20:53:04.823Z,5.13
2022-07-25T20:55:31.668Z,4.67
2022-07-25T20:57:58.675Z,5.10
2022-07-25T21:00:25.846Z,5.20
2022-07-25T21:02:53.870Z,4.70
2022-07-25T21:05:21.225Z,4.77
2022-07-25T21:07:47.966Z,4.90
2022-07-25T21:10:14.756Z,4.80
2022-07-25T21:12:41.414Z,5.00
2022-07-25T21:15:08.444Z,5.30
2022-07-25T21:17:35.200Z,4.80
2022-07-25T21:20:01.917Z,5.80
2022-07-25T21:22:28.587Z,6.13
2022-07-25T21:24:55.387Z,6.23
2022-07-25T21:27:22.078Z,6.00
2022-07-25T21:29:48.742Z,5.80
2022-07-25T21:32:17.149Z,5.20
2022-07-25T21:34:47.263Z,7.50
2022-07-25T21:37:14.223Z,8.20
2022-07-25T21:39:41.008Z,8.40
2022-07-25T21:42:09.879Z,8.67
2022-07-25T21:44:38.884Z,8.70
2022-07-25T21:47:05.679Z,7.83
2022-07-25T21:49:50.814Z,7.03
2022-07-25T21:52:17.540Z,6.07
2022-07-25T21:54:44.671Z,6.00
2022-07-25T21:57:13.658Z,6.30
2022-07-25T21:59:44.117Z,6.40
2022-07-25T22:02:10.879Z,6.40
2022-07-25T22:04:37.538Z,6.23
2022-07-25T22:07:04.264Z,7.10
2022-07-25T22:09:30.935Z,6.70
2022-07-25T22:11:58.237Z,6.57
2022-07-25T22:14:24.941Z,6.50
2022-07-25T22:16:51.711Z,6.53
2022-07-25T22:19:22.131Z,6.53
2022-07-25T22:21:49.364Z,6.87
2022-07-25T22:24:16.007Z,6.50
2022-07-25T22:26:42.658Z,6.20
2022-07-25T22:29:09.997Z,6.43
2022-07-25T22:31:38.759Z,6.83
2022-07-25T22:34:05.671Z,6.10
2022-07-25T22:36:32.383Z,6.23
2022-07-25T22:38:59.028Z,6.20
2022-07-25T22:41:25.693Z,6.23
2022-07-25T22:43:57.842Z,6.40
2022-07-25T22:46:27.839Z,6.40
2022-07-25T22:48:54.691Z,6.23
2022-07-25T22:51:21.828Z,5.90
2022-07-25T22:53:48.463Z,5.80
2022-07-25T22:56:15.117Z,5.60
2022-07-25T22:58:41.811Z,6.27
2022-07-25T23:01:08.579Z,6.60
2022-07-25T23:03:35.884Z,6.10
2022-07-25T23:06:02.569Z,5.13
2022-07-25T23:08:29.260Z,5.43
2022-07-25T23:10:56.021Z,5.07
2022-07-25T23:13:22.687Z,5.17
2022-07-25T23:15:51.207Z,6.07
2022-07-25T23:18:18.688Z,6.10
2022-07-25T23:20:45.366Z,5.87
2022-07-25T23:23:12.128Z,6.27
2022-07-25T23:25:38.937Z,5.20
2022-07-25T23:28:05.684Z,5.10
2022-07-25T23:30:35.412Z,5.20
2022-07-25T23:33:06.624Z,5.40
2022-07-25T23:35:33.328Z,5.00
2022-07-25T23:38:00.562Z,5.60
2022-07-25T23:40:27.367Z,5.00
2022-07-25T23:42:54.482Z,5.80
2022-07-25T23:45:21.823Z,5.40
2022-07-25T23:47:51.632Z,4.70
2022-07-25T23:50:19.746Z,4.57
2022-07-25T23:52:46.420Z,4.47
2022-07-25T23:55:13.124Z,4.00
2022-07-25T23:57:39.797Z,4.23
